Terminal Aerodrome Forecast
Issued by NWS Cleveland, OH

Home | Current Version | Previous Version | Text Only | Print | Product List | Glossary On
Versions: 1 2 3 4 5 6 7 8 9 10 11 12 13 14 15 16 17 18 19 20 21 22 23 24
000
FTUS41 KCLE 210800 AAA
TAFTOL
TAF AMD
KTOL 210833Z 2109/2206 25012G22KT P6SM VCSH BKN060
     FM211300 23015G25KT P6SM BKN060
     FM211500 25022G35KT P6SM BKN060
     FM212300 25015KT P6SM VCSH BKN050=

USA.gov is the U.S. government's official web portal to all federal, state and local government web resources and services.